createdAt,value
2023-04-27T00:01:17.586Z,101300.78
2023-04-27T00:04:04.440Z,101305.69
2023-04-27T00:06:49.560Z,101307.78
2023-04-27T00:09:34.531Z,101320.03
2023-04-27T00:12:19.384Z,101312.25
2023-04-27T00:15:05.944Z,101309.41
2023-04-27T00:17:51.306Z,101307.06
2023-04-27T00:20:36.500Z,101312.69
2023-04-27T00:23:21.629Z,101310.78
2023-04-27T00:26:06.669Z,101312.59
2023-04-27T00:28:51.596Z,101317.91
2023-04-27T00:31:36.380Z,101316.13
2023-04-27T00:34:21.588Z,101324.53
2023-04-27T00:37:06.340Z,101319.72
2023-04-27T00:39:51.182Z,101326.94
2023-04-27T00:42:36.457Z,101325.25
2023-04-27T00:45:21.826Z,101321.00
2023-04-27T00:48:06.840Z,101314.03
2023-04-27T00:50:51.854Z,101312.34
2023-04-27T00:53:37.496Z,101315.44
2023-04-27T00:56:22.689Z,101321.56
2023-04-27T00:59:07.575Z,101322.66
2023-04-27T01:01:53.165Z,101317.50
2023-04-27T01:04:38.046Z,101319.94
2023-04-27T01:07:26.695Z,101324.41
2023-04-27T01:10:11.836Z,101316.25
2023-04-27T01:12:57.429Z,101315.44
2023-04-27T01:15:42.319Z,101321.09
2023-04-27T01:18:27.237Z,101321.66
2023-04-27T01:21:12.335Z,101322.75
2023-04-27T01:23:57.374Z,101322.00
2023-04-27T01:26:42.533Z,101317.06
2023-04-27T01:29:27.297Z,101331.34
2023-04-27T01:32:12.806Z,101328.19
2023-04-27T01:34:57.798Z,101328.06
2023-04-27T01:37:42.818Z,101322.78
2023-04-27T01:40:27.657Z,101317.16
2023-04-27T01:43:12.790Z,101322.00
2023-04-27T01:46:09.175Z,101316.75
2023-04-27T01:48:54.252Z,101318.25
2023-04-27T01:51:39.195Z,101327.59
2023-04-27T01:54:25.599Z,101333.84
2023-04-27T01:57:12.401Z,101332.84
2023-04-27T01:59:57.315Z,101325.78
2023-04-27T02:02:42.430Z,101333.09
2023-04-27T02:05:27.704Z,101323.88
2023-04-27T02:08:12.708Z,101327.75
2023-04-27T02:10:57.601Z,101325.13
2023-04-27T02:13:42.676Z,101328.47
2023-04-27T02:16:27.463Z,101333.25
2023-04-27T02:19:12.774Z,101328.59
2023-04-27T02:21:57.899Z,101330.25
2023-04-27T02:24:42.941Z,101327.81
2023-04-27T02:27:27.798Z,101328.34
2023-04-27T02:30:13.958Z,101326.66
2023-04-27T02:33:00.636Z,101328.59
2023-04-27T02:35:45.947Z,101331.69
2023-04-27T02:38:31.171Z,101329.31
2023-04-27T02:41:16.003Z,101333.63
2023-04-27T02:44:00.787Z,101338.38
2023-04-27T02:46:45.788Z,101328.91
2023-04-27T02:49:30.594Z,101321.63
2023-04-27T02:52:15.820Z,101320.56
2023-04-27T02:55:01.024Z,101323.00
2023-04-27T02:57:46.324Z,101312.13
2023-04-27T03:00:31.256Z,101318.47
2023-04-27T03:03:16.644Z,101317.41
2023-04-27T03:06:01.775Z,101309.38
2023-04-27T03:08:46.891Z,101307.81
2023-04-27T03:11:31.806Z,101305.66
2023-04-27T03:14:16.854Z,101310.69
2023-04-27T03:17:03.078Z,101309.03
2023-04-27T03:19:49.147Z,101320.03
2023-04-27T03:22:34.297Z,101321.97
2023-04-27T03:25:19.125Z,101318.25
2023-04-27T03:28:04.465Z,101330.56
2023-04-27T03:30:49.567Z,101329.13
2023-04-27T03:33:35.047Z,101328.53
2023-04-27T03:36:19.805Z,101325.25
2023-04-27T03:39:04.806Z,101328.34
2023-04-27T03:41:49.608Z,101321.41
2023-04-27T03:44:36.332Z,101328.03
2023-04-27T03:47:21.796Z,101319.66
2023-04-27T03:50:07.196Z,101329.47
2023-04-27T03:52:52.271Z,101332.19
2023-04-27T03:55:42.156Z,101332.91
2023-04-27T03:58:27.002Z,101330.63
2023-04-27T04:01:12.003Z,101337.53
2023-04-27T04:03:57.062Z,101344.72
2023-04-27T04:06:41.887Z,101345.66
2023-04-27T04:09:27.324Z,101343.28
2023-04-27T04:12:13.455Z,101350.13
2023-04-27T04:14:58.606Z,101355.03
2023-04-27T04:17:43.895Z,101351.06
2023-04-27T04:20:28.977Z,101361.56
2023-04-27T04:23:14.206Z,101355.06
2023-04-27T04:25:58.947Z,101371.88
2023-04-27T04:28:44.143Z,101369.59
2023-04-27T04:31:29.633Z,101372.44
2023-04-27T04:34:15.719Z,101370.31
2023-04-27T04:37:00.558Z,101378.81
2023-04-27T04:39:45.679Z,101371.16
2023-04-27T04:42:30.447Z,101383.78
2023-04-27T04:45:15.635Z,101382.09
2023-04-27T04:48:03.958Z,101379.88
2023-04-27T04:50:48.967Z,101382.50
2023-04-27T04:53:33.717Z,101376.06
2023-04-27T04:56:18.706Z,101371.44
2023-04-27T04:59:03.830Z,101373.84
2023-04-27T05:01:48.603Z,101381.03
2023-04-27T05:04:33.807Z,101385.44
2023-04-27T05:07:23.261Z,101388.22
2023-04-27T05:10:10.011Z,101383.03
2023-04-27T05:12:55.223Z,101384.00
2023-04-27T05:15:40.888Z,101387.50
2023-04-27T05:18:25.949Z,101382.63
2023-04-27T05:21:15.556Z,101385.88
2023-04-27T05:24:00.723Z,101388.50
2023-04-27T05:26:45.601Z,101387.72
2023-04-27T05:29:30.458Z,101392.09
2023-04-27T05:32:15.689Z,101401.03
2023-04-27T05:35:00.653Z,101396.03
2023-04-27T05:37:45.679Z,101404.41
2023-04-27T05:40:30.590Z,101403.38
2023-04-27T05:43:15.647Z,101403.72
2023-04-27T05:46:00.800Z,101402.19
2023-04-27T05:48:45.754Z,101401.31
2023-04-27T05:51:32.517Z,101412.56
2023-04-27T05:54:17.440Z,101412.03
2023-04-27T05:57:02.331Z,101415.66
2023-04-27T05:59:47.573Z,101418.03
2023-04-27T06:02:32.674Z,101418.88
2023-04-27T06:05:18.441Z,101406.91
2023-04-27T06:08:03.285Z,101413.78
2023-04-27T06:10:49.808Z,101411.00
2023-04-27T06:13:34.638Z,101407.03
2023-04-27T06:16:20.745Z,101412.56
2023-04-27T06:19:06.271Z,101417.59
2023-04-27T06:21:51.270Z,101419.84
2023-04-27T06:24:36.438Z,101419.38
2023-04-27T06:27:21.425Z,101420.22
2023-04-27T06:30:07.739Z,101425.75
2023-04-27T06:32:53.007Z,101427.91
2023-04-27T06:35:37.932Z,101435.56
2023-04-27T06:38:23.014Z,101431.84
2023-04-27T06:41:07.899Z,101427.94
2023-04-27T06:43:53.726Z,101428.56
2023-04-27T06:46:39.123Z,101425.25
2023-04-27T06:49:24.285Z,101429.78
2023-04-27T06:52:09.568Z,101422.56
2023-04-27T06:54:54.327Z,101427.66
2023-04-27T06:57:39.461Z,101428.09
2023-04-27T07:00:24.490Z,101419.59
2023-04-27T07:03:09.502Z,101424.09
2023-04-27T07:05:56.482Z,101415.19
2023-04-27T07:08:41.334Z,101413.38
2023-04-27T07:11:26.439Z,101411.47
2023-04-27T07:14:11.450Z,101418.47
2023-04-27T07:16:56.352Z,101412.66
2023-04-27T07:19:41.682Z,101416.03
2023-04-27T07:22:26.815Z,101411.31
2023-04-27T07:25:11.940Z,101412.22
2023-04-27T07:27:56.859Z,101411.97
2023-04-27T07:30:42.544Z,101412.69
2023-04-27T07:33:27.791Z,101410.81
2023-04-27T07:36:12.547Z,101414.59
2023-04-27T07:38:58.590Z,101412.75
2023-04-27T07:41:43.498Z,101416.94
2023-04-27T07:44:28.694Z,101414.88
2023-04-27T07:47:13.822Z,101414.13
2023-04-27T07:49:58.650Z,101410.44
2023-04-27T07:52:43.672Z,101399.16
2023-04-27T07:55:28.687Z,101401.00
2023-04-27T07:58:13.754Z,101398.63
2023-04-27T08:00:58.563Z,101392.69
2023-04-27T08:03:43.860Z,101393.38
2023-04-27T08:06:29.864Z,101393.78
2023-04-27T08:09:15.628Z,101400.28
2023-04-27T08:12:02.838Z,101392.38
2023-04-27T08:14:47.725Z,101391.03
2023-04-27T08:17:32.526Z,101390.53
2023-04-27T08:20:17.574Z,101384.22
2023-04-27T08:23:02.484Z,101383.72
2023-04-27T08:25:48.408Z,101373.53
2023-04-27T08:28:33.519Z,101378.47
2023-04-27T08:31:18.692Z,101379.22
2023-04-27T08:34:03.675Z,101368.88
2023-04-27T08:36:48.415Z,101372.88
2023-04-27T08:39:33.256Z,101361.38
2023-04-27T08:42:18.324Z,101360.22
2023-04-27T08:45:04.393Z,101359.22
2023-04-27T08:47:49.487Z,101366.22
2023-04-27T08:50:38.600Z,101364.94
2023-04-27T08:53:23.653Z,101358.41
2023-04-27T08:56:08.403Z,101362.03
2023-04-27T08:58:53.363Z,101355.94
2023-04-27T09:01:44.762Z,101361.00
2023-04-27T09:04:41.873Z,101357.44
2023-04-27T09:07:28.790Z,101355.66
2023-04-27T09:10:15.358Z,101358.75
2023-04-27T09:13:00.955Z,101360.75
2023-04-27T09:15:48.753Z,101353.19
2023-04-27T09:18:37.969Z,101357.41
2023-04-27T09:21:24.958Z,101344.31
2023-04-27T09:24:13.761Z,101346.56
2023-04-27T09:27:00.807Z,101355.81
2023-04-27T09:29:46.118Z,101338.41
2023-04-27T09:32:31.148Z,101332.81
2023-04-27T09:35:29.090Z,101335.81
2023-04-27T09:38:15.885Z,101346.88
2023-04-27T09:41:02.977Z,101340.56
2023-04-27T09:43:48.748Z,101328.13
2023-04-27T09:46:34.178Z,101340.28
2023-04-27T09:49:20.500Z,101336.25
2023-04-27T09:52:05.670Z,101333.38
2023-04-27T09:54:50.843Z,101326.22
2023-04-27T09:57:44.900Z,101321.31
2023-04-27T10:00:59.067Z,101325.81
2023-04-27T10:04:35.120Z,101320.16
2023-04-27T10:07:20.518Z,101312.06
2023-04-27T10:10:05.856Z,101316.63
2023-04-27T10:13:23.742Z,101309.97
2023-04-27T10:16:16.718Z,101309.53
2023-04-27T10:19:09.905Z,101307.97
2023-04-27T10:22:03.700Z,101309.28
2023-04-27T10:24:50.474Z,101307.38
2023-04-27T10:27:39.578Z,101311.59
2023-04-27T10:30:26.362Z,101299.41
2023-04-27T10:33:15.834Z,101302.31
2023-04-27T10:36:00.875Z,101291.19
2023-04-27T10:38:46.531Z,101294.00
2023-04-27T10:41:35.458Z,101291.94
2023-04-27T10:44:27.399Z,101279.81
2023-04-27T10:47:18.502Z,101290.22
2023-04-27T10:50:05.740Z,101273.44
2023-04-27T10:52:51.132Z,101267.56
2023-04-27T10:55:37.320Z,101258.31
2023-04-27T10:58:28.142Z,101262.72
2023-04-27T11:01:27.215Z,101273.44
2023-04-27T11:04:12.940Z,101274.66
2023-04-27T11:06:58.576Z,101270.97
2023-04-27T11:09:43.595Z,101268.09
2023-04-27T11:12:28.391Z,101272.78
2023-04-27T11:15:14.133Z,101263.88
2023-04-27T11:18:05.518Z,101262.47
2023-04-27T11:21:05.600Z,101265.72
2023-04-27T11:23:50.733Z,101259.38
2023-04-27T11:26:35.846Z,101250.59
2023-04-27T11:29:21.220Z,101256.78
2023-04-27T11:32:06.424Z,101248.75
2023-04-27T11:34:55.597Z,101240.00
2023-04-27T11:37:42.340Z,101240.66
2023-04-27T11:40:28.929Z,101247.38
2023-04-27T11:43:14.313Z,101240.78
2023-04-27T11:46:03.393Z,101242.28
2023-04-27T11:48:48.923Z,101238.91
2023-04-27T11:51:34.652Z,101229.16
2023-04-27T11:54:19.813Z,101221.66
2023-04-27T11:57:06.003Z,101224.41
2023-04-27T11:59:51.859Z,101220.03
2023-04-27T12:02:37.738Z,101223.84
2023-04-27T12:05:23.116Z,101226.13
2023-04-27T12:08:07.930Z,101224.34
2023-04-27T12:10:52.778Z,101220.22
2023-04-27T12:13:37.822Z,101206.88
2023-04-27T12:16:23.135Z,101206.00
2023-04-27T12:19:08.073Z,101202.19
2023-04-27T12:21:53.975Z,101201.38
2023-04-27T12:24:39.162Z,101207.31
2023-04-27T12:27:24.118Z,101200.75
2023-04-27T12:30:09.569Z,101195.94
2023-04-27T12:32:54.448Z,101194.53
2023-04-27T12:35:40.174Z,101195.03
2023-04-27T12:38:25.183Z,101201.56
2023-04-27T12:41:10.429Z,101202.63
2023-04-27T12:43:56.577Z,101197.31
2023-04-27T12:46:42.845Z,101199.56
2023-04-27T12:49:28.035Z,101194.97
2023-04-27T12:52:13.483Z,101190.81
2023-04-27T12:54:59.189Z,101189.03
2023-04-27T12:57:44.368Z,101186.19
2023-04-27T13:00:29.676Z,101190.75
2023-04-27T13:03:15.268Z,101177.91
2023-04-27T13:06:00.329Z,101182.59
2023-04-27T13:08:46.336Z,101177.06
2023-04-27T13:11:31.537Z,101182.16
2023-04-27T13:14:16.903Z,101185.97
2023-04-27T13:17:02.530Z,101185.00
2023-04-27T13:19:47.356Z,101176.91
2023-04-27T13:22:32.189Z,101179.00
2023-04-27T13:25:17.524Z,101177.81
2023-04-27T13:28:02.627Z,101183.00
2023-04-27T13:30:48.757Z,101186.22
2023-04-27T13:33:39.700Z,101170.44
2023-04-27T13:36:24.475Z,101167.50
2023-04-27T13:39:09.431Z,101164.34
2023-04-27T13:41:54.220Z,101159.75
2023-04-27T13:44:39.346Z,101165.81
2023-04-27T13:47:24.079Z,101162.88
2023-04-27T13:50:10.928Z,101161.06
2023-04-27T13:52:55.931Z,101148.38
2023-04-27T13:55:41.197Z,101149.72
2023-04-27T13:58:27.910Z,101146.66
2023-04-27T14:01:12.711Z,101153.38
2023-04-27T14:03:57.687Z,101142.22
2023-04-27T14:06:42.509Z,101137.44
2023-04-27T14:09:27.452Z,101139.72
2023-04-27T14:12:13.475Z,101137.25
2023-04-27T14:14:59.443Z,101134.41
2023-04-27T14:17:44.551Z,101137.22
2023-04-27T14:20:29.237Z,101138.66
2023-04-27T14:23:14.212Z,101124.75
2023-04-27T14:25:59.035Z,101125.28
2023-04-27T14:28:44.159Z,101124.03
2023-04-27T14:31:29.539Z,101125.84
2023-04-27T14:34:14.662Z,101121.81
2023-04-27T14:36:59.822Z,101114.78
2023-04-27T14:39:45.734Z,101110.00
2023-04-27T14:42:31.788Z,101103.84
2023-04-27T14:45:18.708Z,101093.47
2023-04-27T14:48:03.889Z,101090.78
2023-04-27T14:50:49.178Z,101080.78
2023-04-27T14:53:33.971Z,101073.41
2023-04-27T14:56:19.147Z,101066.88
2023-04-27T14:59:05.051Z,101074.88
2023-04-27T15:01:50.149Z,101058.75
2023-04-27T15:04:35.740Z,101065.81
2023-04-27T15:07:21.292Z,101050.84
2023-04-27T15:10:06.905Z,101049.53
2023-04-27T15:12:51.794Z,101047.41
2023-04-27T15:15:37.421Z,101053.69
2023-04-27T15:18:23.241Z,101065.97
2023-04-27T15:21:08.000Z,101058.59
2023-04-27T15:23:52.911Z,101049.63
2023-04-27T15:26:37.974Z,101050.88
2023-04-27T15:29:22.803Z,101049.72
2023-04-27T15:32:08.145Z,101046.59
2023-04-27T15:34:52.998Z,101044.91
2023-04-27T15:37:38.355Z,101041.59
2023-04-27T15:40:23.226Z,101045.53
2023-04-27T15:43:08.494Z,101044.53
2023-04-27T15:45:53.558Z,101031.94
2023-04-27T15:48:38.285Z,101038.00
2023-04-27T15:51:23.251Z,101034.22
2023-04-27T15:54:08.393Z,101020.41
2023-04-27T15:56:53.238Z,101026.84
2023-04-27T15:59:38.310Z,101027.56
2023-04-27T16:02:23.379Z,101031.25
2023-04-27T16:05:09.452Z,101025.56
2023-04-27T16:07:54.477Z,101022.44
2023-04-27T16:10:39.710Z,101020.31
2023-04-27T16:13:24.878Z,101016.66
2023-04-27T16:16:09.833Z,101008.28
2023-04-27T16:18:54.630Z,101015.44
2023-04-27T16:21:39.818Z,101007.69
2023-04-27T16:24:25.083Z,101004.09
2023-04-27T16:27:10.385Z,101001.44
2023-04-27T16:29:56.367Z,100999.06
2023-04-27T16:32:41.627Z,100998.03
2023-04-27T16:35:28.972Z,101000.28
2023-04-27T16:38:13.989Z,100988.78
2023-04-27T16:40:58.868Z,100990.31
2023-04-27T16:43:43.814Z,100990.88
2023-04-27T16:46:28.793Z,100974.97
2023-04-27T16:49:14.226Z,100976.03
2023-04-27T16:51:59.293Z,100976.97
2023-04-27T16:54:44.350Z,100970.25
2023-04-27T16:57:29.225Z,100979.53
2023-04-27T17:00:15.105Z,100970.63
2023-04-27T17:03:00.948Z,100962.78
2023-04-27T17:05:46.005Z,100960.94
2023-04-27T17:08:31.126Z,100963.44
2023-04-27T17:11:15.894Z,100965.81
2023-04-27T17:14:01.025Z,100959.84
2023-04-27T17:16:45.926Z,100956.91
2023-04-27T17:19:30.816Z,100952.41
2023-04-27T17:22:16.473Z,100954.59
2023-04-27T17:25:01.727Z,100940.22
2023-04-27T17:27:47.039Z,100937.47
2023-04-27T17:30:31.929Z,100927.53
2023-04-27T17:33:17.182Z,100926.69
2023-04-27T17:36:02.041Z,100936.53
2023-04-27T17:38:48.579Z,100940.59
2023-04-27T17:41:34.873Z,100945.94
2023-04-27T17:44:21.959Z,100948.31
2023-04-27T17:47:06.863Z,100951.00
2023-04-27T17:49:51.818Z,100949.31
2023-04-27T17:52:37.466Z,100938.44
2023-04-27T17:55:22.585Z,100943.16
2023-04-27T17:58:07.311Z,100947.22
2023-04-27T18:00:52.313Z,100942.72
2023-04-27T18:03:37.551Z,100918.69
2023-04-27T18:06:22.907Z,100916.03
2023-04-27T18:09:07.951Z,100918.38
2023-04-27T18:11:52.923Z,100908.28
2023-04-27T18:14:38.502Z,100905.13
2023-04-27T18:17:24.082Z,100906.69
2023-04-27T18:20:10.487Z,100911.94
2023-04-27T18:22:56.517Z,100918.59
2023-04-27T18:25:41.486Z,100918.13
2023-04-27T18:28:26.517Z,100919.38
2023-04-27T18:31:19.033Z,100913.59
2023-04-27T18:34:04.245Z,100918.84
2023-04-27T18:36:52.095Z,100919.84
2023-04-27T18:39:37.360Z,100915.69
2023-04-27T18:42:23.311Z,100914.41
2023-04-27T18:45:08.906Z,100923.22
2023-04-27T18:47:53.790Z,100915.06
2023-04-27T18:50:38.842Z,100914.22
2023-04-27T18:53:23.637Z,100910.44
2023-04-27T18:56:10.079Z,100911.69
2023-04-27T18:58:55.820Z,100911.69
2023-04-27T19:01:41.036Z,100909.88
2023-04-27T19:04:26.191Z,100909.66
2023-04-27T19:07:11.383Z,100901.22
2023-04-27T19:09:56.210Z,100901.03
2023-04-27T19:12:41.289Z,100901.28
2023-04-27T19:15:26.312Z,100901.63
2023-04-27T19:18:11.824Z,100906.66
2023-04-27T19:20:57.942Z,100910.34
2023-04-27T19:23:45.036Z,100914.44
2023-04-27T19:26:30.037Z,100911.44
2023-04-27T19:29:15.397Z,100919.28
2023-04-27T19:32:02.000Z,100908.47
2023-04-27T19:34:47.570Z,100909.41
2023-04-27T19:37:32.717Z,100919.47
2023-04-27T19:40:18.283Z,100922.34
2023-04-27T19:43:05.495Z,100922.69
2023-04-27T19:45:51.102Z,100923.50
2023-04-27T19:48:36.503Z,100919.81
2023-04-27T19:51:21.820Z,100931.16
2023-04-27T19:54:07.002Z,100933.41
2023-04-27T19:56:52.089Z,100926.59
2023-04-27T19:59:37.810Z,100930.75
2023-04-27T20:02:23.219Z,100925.25
2023-04-27T20:05:08.558Z,100922.88
2023-04-27T20:07:53.953Z,100922.72
2023-04-27T20:10:40.871Z,100910.97
2023-04-27T20:13:26.203Z,100909.78
2023-04-27T20:16:10.942Z,100907.44
2023-04-27T20:18:55.855Z,100899.00
2023-04-27T20:21:41.020Z,100896.88
2023-04-27T20:24:26.846Z,100898.88
2023-04-27T20:27:11.870Z,100904.56
2023-04-27T20:29:56.607Z,100902.53
2023-04-27T20:32:41.705Z,100893.69
2023-04-27T20:35:27.561Z,100891.50
2023-04-27T20:38:12.966Z,100891.00
2023-04-27T20:40:58.468Z,100892.84
2023-04-27T20:43:44.614Z,100894.03
2023-04-27T20:46:29.749Z,100896.03
2023-04-27T20:49:18.964Z,100891.69
2023-04-27T20:52:06.802Z,100882.91
2023-04-27T20:54:52.074Z,100888.25
2023-04-27T20:57:37.107Z,100874.28
2023-04-27T21:00:21.858Z,100884.47
2023-04-27T21:03:07.988Z,100878.50
2023-04-27T21:05:53.019Z,100878.66
2023-04-27T21:08:38.521Z,100869.69
2023-04-27T21:11:23.620Z,100861.03
2023-04-27T21:14:08.524Z,100869.50
2023-04-27T21:16:53.459Z,100860.53
2023-04-27T21:19:38.413Z,100858.56
2023-04-27T21:22:23.563Z,100852.78
2023-04-27T21:25:08.716Z,100844.22
2023-04-27T21:27:53.833Z,100842.25
2023-04-27T21:30:39.725Z,100837.84
2023-04-27T21:33:24.714Z,100839.34
2023-04-27T21:36:09.834Z,100832.09
2023-04-27T21:38:54.614Z,100822.81
2023-04-27T21:41:40.890Z,100824.31
2023-04-27T21:44:25.785Z,100823.47
2023-04-27T21:47:11.225Z,100826.34
2023-04-27T21:49:56.327Z,100828.66
2023-04-27T21:52:41.369Z,100821.19
2023-04-27T21:55:26.392Z,100816.38
2023-04-27T21:58:11.522Z,100818.22
2023-04-27T22:00:56.422Z,100810.75
2023-04-27T22:03:41.874Z,100808.28
2023-04-27T22:06:27.462Z,100804.25
2023-04-27T22:09:12.366Z,100804.44
2023-04-27T22:11:57.680Z,100801.78
2023-04-27T22:14:42.771Z,100781.19
2023-04-27T22:17:27.769Z,100792.47
2023-04-27T22:20:14.221Z,100786.34
2023-04-27T22:22:59.196Z,100775.38
2023-04-27T22:25:44.369Z,100772.56
2023-04-27T22:28:29.216Z,100767.91
2023-04-27T22:31:14.564Z,100763.75
2023-04-27T22:33:59.649Z,100768.56
2023-04-27T22:36:44.825Z,100769.59
2023-04-27T22:39:30.396Z,100769.75
2023-04-27T22:42:15.588Z,100770.41
2023-04-27T22:45:00.362Z,100766.25
2023-04-27T22:47:45.829Z,100766.28
2023-04-27T22:50:30.775Z,100770.75
2023-04-27T22:53:16.050Z,100762.47
2023-04-27T22:56:00.923Z,100764.66
2023-04-27T22:58:46.568Z,100759.47
2023-04-27T23:01:31.652Z,100762.66
2023-04-27T23:04:17.583Z,100756.19
2023-04-27T23:07:03.725Z,100750.22
2023-04-27T23:09:49.630Z,100750.69
2023-04-27T23:12:34.957Z,100750.88
2023-04-27T23:15:20.677Z,100751.22
2023-04-27T23:18:06.228Z,100755.84
2023-04-27T23:20:54.811Z,100747.22
2023-04-27T23:23:39.916Z,100745.06
2023-04-27T23:26:24.649Z,100740.94
2023-04-27T23:29:09.789Z,100739.13
2023-04-27T23:31:54.505Z,100734.63
2023-04-27T23:34:39.697Z,100725.50
2023-04-27T23:37:24.831Z,100721.00
2023-04-27T23:40:10.070Z,100716.69
2023-04-27T23:42:55.683Z,100716.53
2023-04-27T23:45:40.900Z,100719.00
2023-04-27T23:48:25.660Z,100709.91
2023-04-27T23:51:10.858Z,100694.97
2023-04-27T23:53:56.311Z,100692.81
2023-04-27T23:56:41.396Z,100686.50
2023-04-27T23:59:26.306Z,100691.97
